Mijn Webcam  Mijn Webcam


webcam richting noord-oost  webcam facing north-east


Regen radar Meer informatie rain snow radar


Bezoek onze andere website:

Template documentation
and downloads

HWS Template - cumulus versie

HWS Template - WU versie

And another site



METAR rapporten vliegvelden

   
EHGG - Groningen/Eelde, Netherlands
Afstand tot: Z 20 km
Gewijzigd: 11-07-2020 02:55
Licht bewolkt  
Licht bewolkt  
   Wind: ZW 11.1 km/h
Wind: ZW 11.1 km/h
Temperatuur: 8°C
Voelt als: 6°C
Dauwpunt: 7°C
Vochtigheid: 93%
Barometer: 1020 hPa
Bewolking: Licht bewolkt
Zicht: meer dan 10 km
Bewolking: Licht bewolkt 1249.7 m
EHGG 110055Z AUTO 22006KT 9999 FEW041 08/07 Q1020
EHMA - Awg-1 Sea, Netherlands
Afstand tot: WNW 45 km
Gewijzigd: 11-07-2020 03:25
Gedeeltelijk bewolkt  
Gedeeltelijk bewolkt  
   Wind: WNW 24.1 km/h
Wind: WNW 24.1 km/h
Temperatuur: 14°C
Dauwpunt: 10°C
Vochtigheid: 77%
Barometer: 1020 hPa
Bewolking: Gedeeltelijk bewolkt
Zicht: meer dan 10 km
Bewolking: Licht bewolkt 731.5 m,
Gedeeltelijk bewolkt 1341.1 m
EHMA 110125Z AUTO 30013KT 9999 FEW024 SCT044 14/10 Q1020
 

Script ontwikkeld door  Saratoga-weather.org Aangepast voor de template door  Weerstation Leuven

U vindt ons ook hier:

Het Weer Aktueel

UK Metoffice

European Weather Network

WeatherCloud

Weather Underground

Benelux Weer Netwerk

AWEKAS

WeatherlinkIP

HAMweather, WeatherForYou, PWS Weather

Apparatuur in gebruik:

Weerstation
Davis VP2

Weerprogramma
Cumulus

Davis VP2

Cumulus